Time;durP1;ratioP1;P1;durP2;ratioP2;P2;SDS_P1;SDS_P2;PMS_P1;PMS_P2;Temp;Humidity;BMP_temperature;BMP_pressure;BME280_temperature;BME280_humidity;BME280_pressure;Samples;Min_cycle;Max_cycle;Signal;HPM_P1;HPM_P2
2022/07/31 00:01:39;;;;;;;43.20;20.35;;;;;;;20.02;100.00;101393.72;5059118;28;20043;-79
2022/07/31 00:04:05;;;;;;;43.15;20.45;;;;;;;20.08;100.00;101385.75;5094608;28;20036;-78
2022/07/31 00:06:30;;;;;;;46.35;21.85;;;;;;;19.96;100.00;101380.50;5059280;28;20029;-79
2022/07/31 00:08:56;;;;;;;43.90;21.38;;;;;;;19.90;100.00;101378.41;5053940;28;20036;-79
2022/07/31 00:11:21;;;;;;;42.95;19.77;;;;;;;19.88;100.00;101386.03;5041771;28;20034;-79
2022/07/31 00:13:47;;;;;;;48.03;23.48;;;;;;;19.88;100.00;101380.50;5041802;28;20036;-78
2022/07/31 00:16:12;;;;;;;49.08;23.65;;;;;;;19.84;100.00;101370.78;5067069;28;20091;-79
2022/07/31 00:18:38;;;;;;;37.75;19.95;;;;;;;19.91;100.00;101373.72;5026743;28;20034;-79
2022/07/31 00:21:03;;;;;;;39.85;20.13;;;;;;;19.83;100.00;101367.09;5043852;28;20407;-79
2022/07/31 00:23:29;;;;;;;36.65;20.08;;;;;;;19.76;100.00;101367.97;5056480;28;20552;-79
2022/07/31 00:25:55;;;;;;;40.58;20.60;;;;;;;19.76;100.00;101360.50;5048857;28;20061;-78
2022/07/31 00:28:21;;;;;;;36.63;19.52;;;;;;;19.79;100.00;101370.38;5076260;28;20021;-78
2022/07/31 00:30:47;;;;;;;33.92;18.08;;;;;;;19.85;100.00;101358.59;5059291;28;20085;-78
2022/07/31 00:33:12;;;;;;;32.35;18.20;;;;;;;19.78;100.00;101350.06;5050203;28;20064;-78
2022/07/31 00:35:38;;;;;;;28.98;17.13;;;;;;;19.79;100.00;101364.81;5062957;28;20040;-78
2022/07/31 00:38:03;;;;;;;30.30;16.90;;;;;;;19.79;100.00;101370.38;5076758;28;20100;-77
2022/07/31 00:40:29;;;;;;;27.70;15.05;;;;;;;19.94;100.00;101362.25;5043522;28;20039;-77
2022/07/31 00:42:54;;;;;;;34.30;15.50;;;;;;;20.08;100.00;101363.50;5049395;28;20040;-79
2022/07/31 00:45:20;;;;;;;26.63;15.95;;;;;;;20.06;100.00;101357.25;5060253;28;20055;-78
2022/07/31 00:47:45;;;;;;;24.83;15.18;;;;;;;20.06;100.00;101366.44;5076862;28;20483;-79
2022/07/31 00:50:11;;;;;;;22.92;14.18;;;;;;;19.97;100.00;101362.81;5060399;28;20032;-79
2022/07/31 00:52:37;;;;;;;22.48;13.00;;;;;;;20.08;100.00;101367.16;5057137;28;20479;-78
2022/07/31 00:55:03;;;;;;;17.55;12.23;;;;;;;20.00;100.00;101372.69;5057800;28;20032;-79
2022/07/31 00:57:29;;;;;;;25.77;12.07;;;;;;;19.99;100.00;101366.28;5059249;28;20075;-78
2022/07/31 00:59:55;;;;;;;26.70;12.52;;;;;;;20.06;100.00;101369.22;5091458;28;20063;-78
2022/07/31 01:02:20;;;;;;;22.75;12.82;;;;;;;19.95;100.00;101369.56;5059295;28;20563;-78
2022/07/31 01:04:46;;;;;;;21.75;11.80;;;;;;;19.86;100.00;101373.34;5094621;28;20028;-79
2022/07/31 01:07:13;;;;;;;27.70;11.63;;;;;;;19.87;100.00;101364.84;5042226;28;20480;-78
2022/07/31 01:09:39;;;;;;;21.13;11.93;;;;;;;19.47;100.00;101363.66;5078431;28;20025;-78
2022/07/31 01:12:30;;;;;;;17.58;12.48;;;;;;;19.50;100.00;101362.47;5078801;28;20040;-78
2022/07/31 01:14:58;;;;;;;18.42;12.10;;;;;;;19.35;100.00;101359.41;5069161;28;20026;-78
2022/07/31 01:17:29;;;;;;;22.33;12.02;;;;;;;19.26;100.00;101353.84;5073827;28;20020;-78
2022/07/31 01:19:55;;;;;;;26.98;13.55;;;;;;;19.17;100.00;101357.63;5064056;28;20545;-78
2022/07/31 01:22:45;;;;;;;22.75;13.00;;;;;;;19.19;100.00;101344.44;5052406;28;20032;-77
2022/07/31 01:25:48;;;;;;;18.20;11.27;;;;;;;19.04;100.00;101338.66;5062526;28;20028;-77
2022/07/31 01:28:51;;;;;;;17.55;11.20;;;;;;;19.20;100.00;101356.41;5093852;28;20460;-78
2022/07/31 01:31:24;;;;;;;15.45;11.77;;;;;;;19.23;100.00;101350.53;5064311;28;20055;-78
2022/07/31 01:33:57;;;;;;;21.38;12.85;;;;;;;19.20;100.00;101346.19;5096624;28;20103;-79
2022/07/31 01:36:27;;;;;;;25.02;13.65;;;;;;;19.14;100.00;101341.28;5079877;28;20032;-79
2022/07/31 01:38:55;;;;;;;15.57;11.82;;;;;;;19.27;100.00;101347.25;5077983;28;20035;-79
2022/07/31 01:41:27;;;;;;;18.27;10.40;;;;;;;19.34;100.00;101339.13;5062406;28;20043;-79
2022/07/31 01:43:55;;;;;;;15.43;8.93;;;;;;;19.32;100.00;101340.34;5079028;28;20114;-78
2022/07/31 01:46:23;;;;;;;11.07;8.93;;;;;;;19.31;100.00;101342.22;5093781;28;20070;-79
2022/07/31 01:48:51;;;;;;;24.88;9.18;;;;;;;19.26;100.00;101331.63;5089542;28;20040;-79
2022/07/31 01:51:19;;;;;;;15.35;10.35;;;;;;;19.26;100.00;101333.53;5078598;28;20050;-78
2022/07/31 01:53:46;;;;;;;11.88;9.73;;;;;;;19.25;100.00;101332.69;5077547;28;20032;-77
2022/07/31 01:56:18;;;;;;;14.43;9.80;;;;;;;19.18;100.00;101328.81;5095895;28;20035;-79
2022/07/31 01:58:45;;;;;;;21.63;10.57;;;;;;;19.16;100.00;101338.34;5077297;28;20047;-77
2022/07/31 02:01:12;;;;;;;17.90;10.85;;;;;;;19.17;100.00;101328.97;5061847;28;20032;-78
2022/07/31 02:03:39;;;;;;;15.50;10.80;;;;;;;19.10;100.00;101331.53;5062163;28;20081;-76
2022/07/31 02:06:05;;;;;;;21.75;10.65;;;;;;;19.09;100.00;101327.06;5076941;28;20043;-77
2022/07/31 02:08:32;;;;;;;14.20;10.65;;;;;;;19.19;100.00;101330.56;5094754;28;20144;-77
2022/07/31 02:10:59;;;;;;;18.48;10.27;;;;;;;19.27;100.00;101330.59;5078542;28;20035;-77
2022/07/31 02:13:26;;;;;;;17.45;11.07;;;;;;;19.12;100.00;101334.16;5097041;28;20043;-77
2022/07/31 02:15:54;;;;;;;16.05;10.35;;;;;;;19.18;100.00;101333.50;5057886;28;20453;-77
2022/07/31 02:18:21;;;;;;;15.65;10.20;;;;;;;19.18;100.00;101339.06;5059153;28;20020;-77
2022/07/31 02:20:49;;;;;;;14.25;9.82;;;;;;;19.16;100.00;101342.00;5077665;28;20040;-78
2022/07/31 02:23:15;;;;;;;15.57;9.63;;;;;;;19.09;100.00;101338.16;5094502;28;20517;-78
2022/07/31 02:25:42;;;;;;;16.90;10.13;;;;;;;19.12;100.00;101346.16;5045944;28;20058;-78
2022/07/31 02:28:11;;;;;;;16.50;9.25;;;;;;;19.18;100.00;101348.25;5095914;28;20028;-78
2022/07/31 02:30:41;;;;;;;17.15;10.10;;;;;;;19.08;100.00;101340.03;5062831;28;20031;-79
2022/07/31 02:33:16;;;;;;;12.35;9.70;;;;;;;19.11;100.00;101341.63;5074877;28;20032;-78
2022/07/31 02:35:44;;;;;;;18.13;9.23;;;;;;;19.01;100.00;101340.88;5096850;28;20044;-78
2022/07/31 02:38:10;;;;;;;15.32;9.40;;;;;;;19.06;100.00;101344.88;5057130;28;20037;-78
2022/07/31 02:40:36;;;;;;;12.20;8.75;;;;;;;19.01;100.00;101329.78;5066045;28;20024;-78
2022/07/31 02:43:03;;;;;;;14.15;9.38;;;;;;;19.06;100.00;101338.47;5061147;28;20562;-79
2022/07/31 02:45:28;;;;;;;15.30;9.05;;;;;;;18.97;100.00;101334.81;5097223;28;20066;-79
2022/07/31 02:47:54;;;;;;;12.52;9.07;;;;;;;19.03;100.00;101334.13;5095596;28;20028;-79
2022/07/31 02:50:20;;;;;;;11.07;9.00;;;;;;;18.93;100.00;101330.59;5075005;28;20063;-79
2022/07/31 02:52:46;;;;;;;14.27;9.35;;;;;;;18.84;100.00;101328.81;5059906;28;20114;-79
2022/07/31 02:55:12;;;;;;;16.27;8.88;;;;;;;18.86;100.00;101347.03;5062429;28;20046;-79
2022/07/31 02:57:37;;;;;;;14.02;8.73;;;;;;;18.86;100.00;101351.72;5058471;28;20488;-78
2022/07/31 03:00:21;;;;;;;12.05;8.43;;;;;;;18.87;100.00;101354.34;5062438;28;20032;-78
2022/07/31 03:02:51;;;;;;;23.10;13.63;;;;;;;18.87;100.00;101350.66;5058636;28;20398;-78
2022/07/31 03:05:16;;;;;;;29.15;21.88;;;;;;;18.81;100.00;101338.31;5045221;28;20127;-79
2022/07/31 03:07:43;;;;;;;35.25;21.17;;;;;;;18.79;100.00;101332.06;5075859;28;20115;-79
2022/07/31 03:10:09;;;;;;;21.67;13.63;;;;;;;18.80;100.00;101347.66;5078459;28;20035;-78
2022/07/31 03:12:38;;;;;;;16.35;10.48;;;;;;;18.71;100.00;101338.41;5048673;28;20032;-79
2022/07/31 03:15:08;;;;;;;14.60;9.73;;;;;;;18.52;100.00;101327.53;5043141;28;20041;-79
2022/07/31 03:17:37;;;;;;;17.98;10.00;;;;;;;18.54;100.00;101334.66;5068518;28;20153;-78
2022/07/31 03:20:08;;;;;;;14.38;9.70;;;;;;;18.51;100.00;101332.22;5077040;28;20055;-79
2022/07/31 03:22:34;;;;;;;11.23;9.35;;;;;;;18.43;100.00;101323.84;5077216;28;20028;-78
2022/07/31 03:25:01;;;;;;;14.70;9.40;;;;;;;18.36;100.00;101329.16;5079245;28;20157;-78
2022/07/31 03:27:27;;;;;;;18.25;9.80;;;;;;;18.32;100.00;101329.63;5059085;28;20012;-78
2022/07/31 03:29:53;;;;;;;15.75;10.07;;;;;;;18.29;100.00;101318.88;5022436;28;20058;-78
2022/07/31 03:32:19;;;;;;;12.38;10.02;;;;;;;18.18;100.00;101331.94;5037439;28;20085;-78
2022/07/31 03:34:45;;;;;;;22.60;10.48;;;;;;;18.37;100.00;101330.03;5058120;28;20439;-78
2022/07/31 03:37:10;;;;;;;14.90;9.40;;;;;;;18.31;100.00;101322.34;5070962;28;20054;-77
2022/07/31 03:39:36;;;;;;;11.93;9.52;;;;;;;18.29;100.00;101319.72;5077341;28;20043;-78
2022/07/31 03:42:02;;;;;;;15.75;10.43;;;;;;;18.24;100.00;101324.88;5060403;28;20047;-79
2022/07/31 03:44:30;;;;;;;19.77;10.38;;;;;;;18.27;100.00;101323.69;5060444;28;20391;-77
2022/07/31 03:46:55;;;;;;;19.38;9.98;;;;;;;18.27;100.00;101319.03;5076960;28;20114;-79
2022/07/31 03:49:22;;;;;;;15.63;10.57;;;;;;;18.33;100.00;101329.47;5057934;28;20036;-79
2022/07/31 03:51:48;;;;;;;15.63;9.73;;;;;;;18.21;100.00;101333.50;5044251;28;20110;-79
2022/07/31 03:54:13;;;;;;;15.73;10.32;;;;;;;18.17;100.00;101332.97;5076815;28;20386;-78
2022/07/31 03:56:42;;;;;;;14.10;11.02;;;;;;;18.26;100.00;101339.44;5043804;28;20543;-78
2022/07/31 03:59:08;;;;;;;15.15;10.57;;;;;;;18.21;100.00;101332.66;5075359;28;20031;-78
2022/07/31 04:01:34;;;;;;;22.75;10.93;;;;;;;18.13;100.00;101330.66;5075524;28;20054;-78
2022/07/31 04:04:00;;;;;;;20.80;11.30;;;;;;;18.17;100.00;101324.66;5077159;28;20123;-78
2022/07/31 04:06:25;;;;;;;15.82;10.93;;;;;;;18.19;100.00;101330.03;5060857;28;20369;-77
2022/07/31 04:08:51;;;;;;;18.38;10.88;;;;;;;18.16;100.00;101322.91;5059077;28;20061;-78
2022/07/31 04:11:16;;;;;;;14.35;11.27;;;;;;;18.30;100.00;101324.25;5067026;28;20086;-78
2022/07/31 04:13:42;;;;;;;20.10;11.38;;;;;;;18.27;100.00;101324.56;5073627;28;20032;-79
2022/07/31 04:16:08;;;;;;;21.55;11.93;;;;;;;18.27;100.00;101326.47;5060035;28;20126;-78
2022/07/31 04:18:33;;;;;;;21.48;11.90;;;;;;;18.24;100.00;101324.03;5059650;28;20039;-79
2022/07/31 04:20:59;;;;;;;17.52;10.75;;;;;;;18.28;100.00;101322.66;5077506;28;20036;-79
2022/07/31 04:23:25;;;;;;;17.67;11.38;;;;;;;18.30;100.00;101318.69;5075280;28;20048;-79
2022/07/31 04:25:51;;;;;;;15.63;11.20;;;;;;;18.24;100.00;101324.88;5061638;28;20063;-79
2022/07/31 04:28:16;;;;;;;14.00;11.15;;;;;;;18.24;100.00;101330.44;5076641;28;20035;-79
2022/07/31 04:30:42;;;;;;;14.98;11.40;;;;;;;18.14;100.00;101333.28;5076911;28;20044;-78
2022/07/31 04:33:08;;;;;;;17.63;11.43;;;;;;;18.26;100.00;101335.81;5067124;28;20036;-78
2022/07/31 04:35:34;;;;;;;20.83;11.15;;;;;;;18.32;100.00;101338.81;5033006;28;20043;-78
2022/07/31 04:37:59;;;;;;;13.68;10.77;;;;;;;18.40;100.00;101348.22;5075013;28;20032;-80
2022/07/31 04:40:26;;;;;;;17.13;11.25;;;;;;;18.40;100.00;101343.56;5070370;28;20082;-80
2022/07/31 04:42:55;;;;;;;16.08;11.35;;;;;;;18.25;100.00;101336.84;5063926;28;20024;-80
2022/07/31 04:45:20;;;;;;;21.85;11.10;;;;;;;18.29;100.00;101339.13;5041410;28;20556;-79
2022/07/31 04:47:46;;;;;;;20.45;10.30;;;;;;;18.34;100.00;101347.81;5058752;28;20028;-79
2022/07/31 04:50:12;;;;;;;16.27;10.73;;;;;;;18.27;100.00;101340.34;5094985;28;20131;-80
2022/07/31 04:52:37;;;;;;;14.15;10.18;;;;;;;18.26;100.00;101344.13;5059489;28;20447;-80
2022/07/31 04:55:03;;;;;;;15.27;9.52;;;;;;;18.36;100.00;101345.78;5072565;28;20054;-80
2022/07/31 04:57:28;;;;;;;14.77;9.52;;;;;;;18.32;100.00;101343.50;5053982;28;20036;-80
2022/07/31 04:59:54;;;;;;;14.63;9.95;;;;;;;18.27;100.00;101355.06;5075597;28;20036;-80
2022/07/31 05:02:20;;;;;;;16.90;9.73;;;;;;;18.25;100.00;101345.16;5074928;28;20036;-80
2022/07/31 05:04:45;;;;;;;17.65;9.05;;;;;;;18.29;100.00;101338.25;5042657;28;20535;-80
2022/07/31 05:07:11;;;;;;;14.98;9.25;;;;;;;18.37;100.00;101346.66;5065107;28;20504;-79
2022/07/31 05:09:37;;;;;;;13.75;9.40;;;;;;;18.42;100.00;101344.25;5055949;28;20033;-79
2022/07/31 05:12:02;;;;;;;17.25;8.35;;;;;;;18.50;100.00;101337.91;5040112;28;20194;-78
2022/07/31 05:14:28;;;;;;;14.93;8.48;;;;;;;18.47;100.00;101335.47;5059031;28;20039;-78
2022/07/31 05:16:53;;;;;;;14.93;8.95;;;;;;;18.40;100.00;101332.47;5059173;28;20044;-78
2022/07/31 05:19:19;;;;;;;10.73;8.27;;;;;;;18.47;100.00;101336.31;5058652;28;20040;-79
2022/07/31 05:21:45;;;;;;;11.05;7.90;;;;;;;18.44;100.00;101335.78;5074222;28;20173;-79
2022/07/31 05:24:10;;;;;;;9.82;7.43;;;;;;;18.46;100.00;101333.72;5046188;28;20101;-79
2022/07/31 05:26:37;;;;;;;9.73;7.85;;;;;;;18.41;100.00;101336.09;5058052;28;20040;-79
2022/07/31 05:29:03;;;;;;;10.45;7.43;;;;;;;18.40;100.00;101326.94;5042695;28;20036;-79
2022/07/31 05:31:29;;;;;;;14.45;7.82;;;;;;;18.46;100.00;101329.06;5055302;28;20063;-79
2022/07/31 05:33:57;;;;;;;12.45;6.82;;;;;;;18.53;100.00;101332.91;5058880;28;20043;-79
2022/07/31 05:36:24;;;;;;;15.10;7.00;;;;;;;18.49;100.00;101327.84;5074363;28;20051;-81
2022/07/31 05:38:49;;;;;;;9.27;6.75;;;;;;;18.56;100.00;101340.03;5059076;28;20445;-80
2022/07/31 05:41:15;;;;;;;11.73;6.65;;;;;;;18.63;100.00;101329.19;5059998;28;20066;-80
2022/07/31 05:43:41;;;;;;;9.52;6.57;;;;;;;18.48;100.00;101331.63;5074159;28;20036;-80
2022/07/31 05:46:07;;;;;;;10.18;5.95;;;;;;;18.54;100.00;101326.34;5071852;28;20047;-80
2022/07/31 05:48:33;;;;;;;11.70;6.28;;;;;;;18.57;100.00;101327.91;5059026;28;20123;-79
2022/07/31 05:50:59;;;;;;;10.23;6.43;;;;;;;18.45;100.00;101321.75;5057174;28;20055;-80
2022/07/31 05:53:24;;;;;;;11.05;5.30;;;;;;;18.63;100.00;101316.16;5033647;28;20029;-79
2022/07/31 05:55:50;;;;;;;11.40;5.22;;;;;;;18.73;100.00;101313.28;5050949;28;20494;-79
2022/07/31 05:58:17;;;;;;;11.93;5.65;;;;;;;18.71;100.00;101309.81;5079818;28;20525;-79
2022/07/31 06:00:44;;;;;;;8.00;5.20;;;;;;;18.58;100.00;101315.78;5062850;28;20100;-78
2022/07/31 06:03:11;;;;;;;7.30;5.30;;;;;;;18.62;100.00;101327.44;5077074;28;20100;-78
2022/07/31 06:05:41;;;;;;;11.93;5.78;;;;;;;18.60;100.00;101330.34;5046874;28;20479;-78
2022/07/31 06:08:08;;;;;;;8.00;5.63;;;;;;;18.68;100.00;101332.31;5078205;28;20036;-79
2022/07/31 06:10:35;;;;;;;8.55;5.57;;;;;;;18.73;100.00;101333.56;5079186;28;20032;-79
2022/07/31 06:13:00;;;;;;;10.02;5.78;;;;;;;18.72;100.00;101329.03;5092738;28;20032;-78
2022/07/31 06:15:27;;;;;;;10.63;5.57;;;;;;;18.69;100.00;101331.28;5094526;28;20482;-79
2022/07/31 06:17:52;;;;;;;11.77;6.40;;;;;;;18.81;100.00;101332.75;5058904;28;20064;-78
2022/07/31 06:20:18;;;;;;;8.20;4.82;;;;;;;18.78;100.00;101335.84;5051252;28;20032;-78
2022/07/31 06:22:43;;;;;;;9.23;5.00;;;;;;;18.81;100.00;101337.44;5057216;28;20032;-78
2022/07/31 06:25:09;;;;;;;6.72;4.97;;;;;;;18.85;100.00;101330.56;5089696;28;20036;-78
2022/07/31 06:27:36;;;;;;;8.00;4.65;;;;;;;18.94;100.00;101337.91;5097048;28;20115;-78
2022/07/31 06:30:05;;;;;;;9.23;4.57;;;;;;;18.92;100.00;101332.50;5077957;28;20114;-78
2022/07/31 06:32:32;;;;;;;9.13;4.72;;;;;;;18.94;100.00;101337.91;5061209;28;20046;-78
2022/07/31 06:34:58;;;;;;;6.63;4.53;;;;;;;18.95;100.00;101334.06;5097280;28;20507;-79
2022/07/31 06:37:24;;;;;;;8.63;4.25;;;;;;;18.93;100.00;101336.16;5079462;28;20032;-79
2022/07/31 06:39:51;;;;;;;6.70;4.40;;;;;;;18.93;100.00;101327.81;5059045;28;20482;-79
2022/07/31 06:42:18;;;;;;;8.57;4.65;;;;;;;19.00;100.00;101334.44;5077487;28;20399;-79
2022/07/31 06:44:43;;;;;;;11.35;4.85;;;;;;;18.91;100.00;101332.69;5077326;28;20036;-79
2022/07/31 06:47:09;;;;;;;5.30;4.53;;;;;;;18.95;100.00;101331.28;5076708;28;20028;-78
2022/07/31 06:49:34;;;;;;;9.13;4.72;;;;;;;19.03;100.00;101331.34;5070579;28;20040;-78
2022/07/31 06:52:00;;;;;;;6.20;3.90;;;;;;;19.09;100.00;101330.69;5041077;28;20392;-79
2022/07/31 06:54:25;;;;;;;12.40;4.50;;;;;;;19.12;100.00;101323.94;5059516;28;20036;-78
2022/07/31 06:56:51;;;;;;;6.93;4.25;;;;;;;19.18;100.00;101331.59;5062604;28;20036;-79
2022/07/31 06:59:16;;;;;;;4.65;4.25;;;;;;;19.17;100.00;101327.09;5060696;28;20035;-78
2022/07/31 07:01:42;;;;;;;6.13;4.55;;;;;;;19.24;100.00;101327.28;5055957;28;20094;-78
2022/07/31 07:04:08;;;;;;;6.75;3.95;;;;;;;19.22;100.00;101324.69;5088041;28;20165;-78
2022/07/31 07:06:33;;;;;;;7.25;4.10;;;;;;;19.33;100.00;101325.41;5084457;28;20028;-79
2022/07/31 07:08:59;;;;;;;9.32;4.35;;;;;;;19.32;100.00;101316.22;5079265;28;20432;-78
2022/07/31 07:11:25;;;;;;;9.00;3.67;;;;;;;19.49;100.00;101322.69;5062270;28;20071;-79
2022/07/31 07:13:50;;;;;;;7.25;3.95;;;;;;;19.41;100.00;101315.22;5041991;28;20040;-79
2022/07/31 07:16:16;;;;;;;8.68;4.32;;;;;;;19.60;100.00;101315.97;5076035;28;20391;-78
2022/07/31 07:18:42;;;;;;;4.65;4.07;;;;;;;19.57;100.00;101319.94;5068566;28;20047;-79
2022/07/31 07:21:08;;;;;;;8.93;4.10;;;;;;;19.52;100.00;101314.03;5078585;28;20095;-79
2022/07/31 07:23:33;;;;;;;10.88;4.18;;;;;;;19.53;100.00;101320.44;5043323;28;20036;-79
2022/07/31 07:25:58;;;;;;;10.43;4.10;;;;;;;19.64;100.00;101320.13;5040334;28;20032;-79
2022/07/31 07:28:24;;;;;;;6.72;4.50;;;;;;;19.56;100.00;101322.88;5077626;28;20043;-79
2022/07/31 07:30:49;;;;;;;7.30;4.40;;;;;;;19.61;100.00;101315.78;5042400;28;20032;-81
2022/07/31 07:33:15;;;;;;;5.75;3.65;;;;;;;19.80;100.00;101322.09;5059701;28;20404;-79
2022/07/31 07:35:42;;;;;;;5.85;4.05;;;;;;;19.90;100.00;101319.19;5072785;28;20063;-79
2022/07/31 07:38:08;;;;;;;5.20;4.22;;;;;;;20.29;100.00;101313.81;5065911;28;20039;-79
2022/07/31 07:40:34;;;;;;;11.70;4.95;;;;;;;20.38;100.00;101317.44;5079803;28;20387;-79
2022/07/31 07:42:59;;;;;;;8.70;3.95;;;;;;;20.36;100.00;101311.19;5076316;28;20114;-79
2022/07/31 07:45:25;;;;;;;6.18;4.03;;;;;;;20.46;100.00;101313.78;5065337;28;20093;-78
2022/07/31 07:47:50;;;;;;;7.15;4.35;;;;;;;20.39;100.00;101306.16;5057671;28;20580;-78
2022/07/31 07:50:16;;;;;;;5.75;4.10;;;;;;;20.43;100.00;101298.34;5025687;28;20033;-78
2022/07/31 07:52:42;;;;;;;4.40;4.00;;;;;;;20.38;100.00;101310.00;5081813;28;20373;-78
2022/07/31 07:55:09;;;;;;;9.52;5.13;;;;;;;20.41;100.00;101303.19;5095927;28;20055;-78
2022/07/31 07:57:37;;;;;;;6.47;4.60;;;;;;;20.71;100.00;101306.31;5075597;28;20034;-78
2022/07/31 08:00:06;;;;;;;6.35;5.18;;;;;;;20.71;100.00;101312.75;5060509;28;20043;-78
2022/07/31 08:02:32;;;;;;;9.20;5.10;;;;;;;20.80;100.00;101307.16;5089795;28;20495;-78
2022/07/31 08:04:58;;;;;;;9.18;5.38;;;;;;;20.93;100.00;101313.03;5077556;28;20043;-77
2022/07/31 08:07:28;;;;;;;11.48;5.15;;;;;;;20.79;100.00;101311.00;5070696;28;20032;-79
2022/07/31 08:09:55;;;;;;;13.88;5.30;;;;;;;21.46;100.00;101310.56;5075438;28;20043;-79
2022/07/31 08:12:20;;;;;;;7.53;4.55;;;;;;;21.68;100.00;101303.34;5081819;28;20384;-78
2022/07/31 08:14:46;;;;;;;5.43;4.72;;;;;;;21.99;100.00;101302.44;5076591;28;20056;-78
2022/07/31 08:17:12;;;;;;;9.25;5.55;;;;;;;21.69;100.00;101304.19;5077050;28;20096;-77
2022/07/31 08:19:39;;;;;;;8.18;5.50;;;;;;;21.42;100.00;101298.06;5075617;28;20132;-78
2022/07/31 08:22:05;;;;;;;9.85;4.95;;;;;;;21.78;100.00;101297.53;5039069;28;20119;-77
2022/07/31 08:24:30;;;;;;;9.80;5.00;;;;;;;21.90;100.00;101295.19;5075469;28;20046;-78
2022/07/31 08:29:40;;;;;;;6.63;4.68;;;;;;;22.20;100.00;101294.25;5046905;28;20380;-79
2022/07/31 08:32:06;;;;;;;8.65;5.00;;;;;;;21.89;100.00;101293.44;5059154;28;20038;-78
2022/07/31 08:34:31;;;;;;;6.72;4.68;;;;;;;21.95;100.00;101296.34;5075745;28;20553;-79
2022/07/31 08:36:57;;;;;;;7.68;4.95;;;;;;;22.21;100.00;101301.53;5027020;28;20123;-79
2022/07/31 08:39:23;;;;;;;14.02;4.90;;;;;;;22.01;100.00;101294.75;5057387;28;20365;-80
2022/07/31 08:41:49;;;;;;;7.40;4.40;;;;;;;21.91;100.00;101300.56;5058906;28;20042;-79
2022/07/31 08:44:14;;;;;;;7.50;4.80;;;;;;;21.70;100.00;101292.88;5048856;28;20050;-79
2022/07/31 08:46:40;;;;;;;8.55;4.53;;;;;;;21.92;100.00;101299.50;5078990;28;20039;-79
2022/07/31 08:49:08;;;;;;;7.93;4.55;;;;;;;22.02;100.00;101299.25;5046177;28;20059;-78
2022/07/31 08:51:36;;;;;;;5.95;5.07;;;;;;;21.92;100.00;101291.13;5053783;28;20082;-78
2022/07/31 08:54:06;;;;;;;5.00;4.30;;;;;;;21.92;100.00;101293.06;5075348;28;20111;-78
2022/07/31 08:56:36;;;;;;;8.63;5.00;;;;;;;21.76;100.00;101297.72;5054762;28;20033;-78
2022/07/31 08:59:03;;;;;;;9.90;4.68;;;;;;;21.86;100.00;101294.69;5092486;28;20483;-79
2022/07/31 09:01:32;;;;;;;11.02;4.78;;;;;;;21.88;100.00;101294.50;5069766;28;20056;-80
2022/07/31 09:03:58;;;;;;;9.98;4.90;;;;;;;21.59;100.00;101288.56;5048303;28;20506;-79
2022/07/31 09:06:24;;;;;;;12.48;5.90;;;;;;;21.89;100.00;101296.22;5046326;28;20111;-80
2022/07/31 09:08:49;;;;;;;17.40;7.03;;;;;;;21.87;100.00;101284.41;5078045;28;20031;-80
2022/07/31 09:11:15;;;;;;;27.73;6.35;;;;;;;22.23;100.00;101280.97;5069986;28;20040;-80
2022/07/31 09:14:02;;;;;;;310.23;24.77;;;;;;;22.56;100.00;101284.34;5067706;28;20039;-81
2022/07/31 09:16:29;;;;;;;6.82;4.15;;;;;;;22.47;100.00;101282.69;5075270;28;20036;-78
2022/07/31 09:18:55;;;;;;;8.48;4.22;;;;;;;22.39;100.00;101280.84;5095304;28;20024;-78
2022/07/31 09:21:23;;;;;;;6.50;4.05;;;;;;;22.33;100.00;101287.19;5077033;28;20340;-78
2022/07/31 09:23:48;;;;;;;10.50;4.35;;;;;;;22.01;100.00;101280.81;5075938;28;20114;-79
2022/07/31 09:26:14;;;;;;;5.72;4.05;;;;;;;22.15;100.00;101287.47;5074888;28;20107;-79
2022/07/31 09:28:45;;;;;;;9.80;4.00;;;;;;;22.03;100.00;101275.91;5060470;28;20058;-81
2022/07/31 09:31:15;;;;;;;8.07;4.40;;;;;;;22.15;100.00;101282.78;5079200;28;20040;-78
2022/07/31 09:33:44;;;;;;;6.68;4.07;;;;;;;21.96;100.00;101281.34;5091593;28;20032;-78
2022/07/31 09:36:10;;;;;;;5.18;4.13;;;;;;;22.24;100.00;101288.28;5094654;28;20048;-78
2022/07/31 09:38:42;;;;;;;5.40;4.43;;;;;;;22.11;100.00;101281.41;5072238;28;20100;-78
2022/07/31 09:41:16;;;;;;;6.90;4.20;;;;;;;22.02;100.00;101276.94;5075987;28;20039;-79
2022/07/31 09:43:42;;;;;;;9.80;4.70;;;;;;;22.12;100.00;101280.38;5079290;28;20028;-79
2022/07/31 09:46:08;;;;;;;6.13;3.90;;;;;;;22.21;100.00;101278.38;5077721;28;20475;-79
2022/07/31 09:48:35;;;;;;;9.70;4.45;;;;;;;22.28;100.00;101282.13;5047112;28;20078;-79
2022/07/31 09:51:06;;;;;;;7.18;4.28;;;;;;;22.40;100.00;101274.22;5054007;28;20032;-79
2022/07/31 09:53:46;;;;;;;4.40;3.33;;;;;;;22.76;100.00;101279.09;5090838;28;20085;-78
2022/07/31 09:56:14;;;;;;;5.85;3.90;;;;;;;22.88;100.00;101265.50;5063301;28;20482;-79
2022/07/31 09:58:41;;;;;;;6.00;4.28;;;;;;;22.85;100.00;101272.31;5042677;28;20028;-79
2022/07/31 10:01:11;;;;;;;6.00;3.63;;;;;;;22.92;100.00;101280.78;5080462;28;20078;-79
2022/07/31 10:03:39;;;;;;;4.75;4.07;;;;;;;22.95;100.00;101281.28;5066541;28;20146;-79
2022/07/31 10:06:07;;;;;;;5.82;4.45;;;;;;;22.94;100.00;101284.28;5059652;28;20528;-79
2022/07/31 10:08:37;;;;;;;6.30;4.07;;;;;;;22.96;100.00;101284.94;5046134;28;20020;-80
2022/07/31 10:11:05;;;;;;;6.90;4.15;;;;;;;22.91;100.00;101268.78;5056847;28;20040;-79
2022/07/31 10:13:36;;;;;;;5.45;4.50;;;;;;;23.10;100.00;101281.31;5066316;28;20077;-79
2022/07/31 10:16:03;;;;;;;5.90;3.90;;;;;;;23.36;100.00;101276.28;5066167;28;20448;-79
2022/07/31 10:18:33;;;;;;;7.32;3.60;;;;;;;23.31;100.00;101279.66;5054502;28;20029;-78
2022/07/31 10:21:01;;;;;;;8.20;4.28;;;;;;;23.36;100.00;101282.72;5071551;28;20514;-79
2022/07/31 10:23:29;;;;;;;7.88;3.88;;;;;;;23.37;100.00;101280.81;5071255;28;20042;-79
2022/07/31 10:25:58;;;;;;;4.68;3.92;;;;;;;23.73;100.00;101274.34;5078287;28;20472;-78
2022/07/31 10:28:24;;;;;;;8.77;4.25;;;;;;;24.09;100.00;101276.22;5097374;28;20408;-79
2022/07/31 10:30:50;;;;;;;5.85;3.78;;;;;;;23.96;100.00;101271.41;5060655;28;20121;-78
2022/07/31 10:33:17;;;;;;;7.25;3.42;;;;;;;24.15;100.00;101264.25;5075171;28;20153;-78
2022/07/31 10:36:09;;;;;;;6.05;3.45;;;;;;;24.37;100.00;101265.09;5076826;28;20075;-78
2022/07/31 10:38:47;;;;;;;5.33;3.43;;;;;;;24.48;100.00;101263.66;5093197;28;20124;-79
2022/07/31 10:41:33;;;;;;;5.82;3.50;;;;;;;24.61;100.00;101262.91;5060378;28;20739;-78
2022/07/31 10:44:04;;;;;;;5.47;3.58;;;;;;;24.65;100.00;101267.06;5095183;28;20395;-79
2022/07/31 10:46:32;;;;;;;5.30;3.13;;;;;;;24.25;100.00;101261.09;5096815;28;20035;-79
2022/07/31 10:48:58;;;;;;;7.03;3.40;;;;;;;24.12;100.00;101253.44;5059731;28;20032;-79
2022/07/31 10:51:25;;;;;;;7.40;2.72;;;;;;;24.38;100.00;101245.28;5061819;28;20036;-78
2022/07/31 10:53:58;;;;;;;4.13;2.80;;;;;;;24.39;100.00;101257.34;5076705;28;20032;-79
2022/07/31 10:56:23;;;;;;;7.55;2.75;;;;;;;24.69;100.00;101258.00;5075115;28;20964;-78
2022/07/31 10:58:51;;;;;;;7.05;2.80;;;;;;;24.62;100.00;101251.50;5075973;28;20040;-77
2022/07/31 11:01:17;;;;;;;4.43;2.40;;;;;;;24.67;100.00;101248.09;5056221;28;20086;-79
2022/07/31 11:03:58;;;;;;;3.53;2.40;;;;;;;24.63;100.00;101250.47;5079927;28;20071;-77
2022/07/31 11:06:25;;;;;;;5.47;2.20;;;;;;;24.46;100.00;101254.59;5062467;28;20031;-77
2022/07/31 11:08:52;;;;;;;2.97;2.15;;;;;;;24.49;100.00;101243.00;5031408;28;20123;-77
2022/07/31 11:11:31;;;;;;;6.03;2.55;;;;;;;24.63;100.00;101247.66;5070107;28;20051;-77
2022/07/31 11:13:59;;;;;;;4.55;2.53;;;;;;;24.55;100.00;101239.38;5056882;28;20032;-78